sensor_id;sensor_type;location;lat;lon;timestamp;temperature;humidity
65568;DHT22;52211;50.154;8.682;2023-07-30T00:00:18;22.80;56.10
65568;DHT22;52211;50.154;8.682;2023-07-30T00:02:47;22.80;56.20
65568;DHT22;52211;50.154;8.682;2023-07-30T00:05:14;22.80;56.20
65568;DHT22;52211;50.154;8.682;2023-07-30T00:07:41;22.80;56.40
65568;DHT22;52211;50.154;8.682;2023-07-30T00:10:13;22.70;56.40
65568;DHT22;52211;50.154;8.682;2023-07-30T00:12:42;22.70;56.40
65568;DHT22;52211;50.154;8.682;2023-07-30T00:15:11;22.70;56.50
65568;DHT22;52211;50.154;8.682;2023-07-30T00:17:39;22.70;56.50
65568;DHT22;52211;50.154;8.682;2023-07-30T00:20:13;22.70;56.70
65568;DHT22;52211;50.154;8.682;2023-07-30T00:22:40;22.60;57.00
65568;DHT22;52211;50.154;8.682;2023-07-30T00:25:07;22.70;57.10
65568;DHT22;52211;50.154;8.682;2023-07-30T00:27:39;22.60;57.80
65568;DHT22;52211;50.154;8.682;2023-07-30T00:30:09;22.60;57.00
65568;DHT22;52211;50.154;8.682;2023-07-30T00:32:36;22.50;57.10
65568;DHT22;52211;50.154;8.682;2023-07-30T00:35:10;22.50;57.30
65568;DHT22;52211;50.154;8.682;2023-07-30T00:37:40;22.50;57.40
65568;DHT22;52211;50.154;8.682;2023-07-30T00:40:09;22.60;57.60
65568;DHT22;52211;50.154;8.682;2023-07-30T00:42:39;22.50;57.40
65568;DHT22;52211;50.154;8.682;2023-07-30T00:45:09;22.50;57.50
65568;DHT22;52211;50.154;8.682;2023-07-30T00:47:41;22.50;57.50
65568;DHT22;52211;50.154;8.682;2023-07-30T00:50:15;22.50;57.50
65568;DHT22;52211;50.154;8.682;2023-07-30T00:52:43;22.40;57.70
65568;DHT22;52211;50.154;8.682;2023-07-30T00:55:11;22.50;57.80
65568;DHT22;52211;50.154;8.682;2023-07-30T00:57:39;22.50;57.80
65568;DHT22;52211;50.154;8.682;2023-07-30T01:00:09;22.50;57.90
65568;DHT22;52211;50.154;8.682;2023-07-30T01:02:37;22.40;57.90
65568;DHT22;52211;50.154;8.682;2023-07-30T01:05:05;22.40;57.80
65568;DHT22;52211;50.154;8.682;2023-07-30T01:07:34;22.40;57.90
65568;DHT22;52211;50.154;8.682;2023-07-30T01:10:03;22.40;57.90
65568;DHT22;52211;50.154;8.682;2023-07-30T01:12:32;22.40;58.00
65568;DHT22;52211;50.154;8.682;2023-07-30T01:15:01;22.40;58.20
65568;DHT22;52211;50.154;8.682;2023-07-30T01:17:31;22.40;58.20
65568;DHT22;52211;50.154;8.682;2023-07-30T01:19:58;22.40;58.20
65568;DHT22;52211;50.154;8.682;2023-07-30T01:22:25;22.40;58.20
65568;DHT22;52211;50.154;8.682;2023-07-30T01:24:54;22.40;58.20
65568;DHT22;52211;50.154;8.682;2023-07-30T01:27:36;22.40;58.50
65568;DHT22;52211;50.154;8.682;2023-07-30T01:32:49;22.30;58.50
65568;DHT22;52211;50.154;8.682;2023-07-30T01:35:21;22.40;58.90
65568;DHT22;52211;50.154;8.682;2023-07-30T01:37:57;22.30;58.70
65568;DHT22;52211;50.154;8.682;2023-07-30T01:40:25;22.30;58.90
65568;DHT22;52211;50.154;8.682;2023-07-30T01:42:54;22.30;58.70
65568;DHT22;52211;50.154;8.682;2023-07-30T01:45:21;22.40;58.90
65568;DHT22;52211;50.154;8.682;2023-07-30T01:47:48;22.40;58.80
65568;DHT22;52211;50.154;8.682;2023-07-30T01:50:18;22.30;58.90
65568;DHT22;52211;50.154;8.682;2023-07-30T01:52:45;22.40;59.10
65568;DHT22;52211;50.154;8.682;2023-07-30T01:55:17;22.30;59.00
65568;DHT22;52211;50.154;8.682;2023-07-30T01:57:44;22.40;59.00
65568;DHT22;52211;50.154;8.682;2023-07-30T02:00:11;22.30;59.10
65568;DHT22;52211;50.154;8.682;2023-07-30T02:02:41;22.30;59.10
65568;DHT22;52211;50.154;8.682;2023-07-30T02:05:15;22.40;59.20
65568;DHT22;52211;50.154;8.682;2023-07-30T02:07:45;22.30;59.20
65568;DHT22;52211;50.154;8.682;2023-07-30T02:10:14;22.30;59.00
65568;DHT22;52211;50.154;8.682;2023-07-30T02:12:43;22.30;58.90
65568;DHT22;52211;50.154;8.682;2023-07-30T02:15:13;22.30;59.00
65568;DHT22;52211;50.154;8.682;2023-07-30T02:17:42;22.30;59.10
65568;DHT22;52211;50.154;8.682;2023-07-30T02:20:12;22.30;59.10
65568;DHT22;52211;50.154;8.682;2023-07-30T02:22:39;22.30;59.20
65568;DHT22;52211;50.154;8.682;2023-07-30T02:25:08;22.30;59.00
65568;DHT22;52211;50.154;8.682;2023-07-30T02:27:37;22.30;59.20
65568;DHT22;52211;50.154;8.682;2023-07-30T02:30:06;22.30;59.10
65568;DHT22;52211;50.154;8.682;2023-07-30T02:32:33;22.30;59.10
65568;DHT22;52211;50.154;8.682;2023-07-30T02:35:02;22.30;60.00
65568;DHT22;52211;50.154;8.682;2023-07-30T02:37:34;22.30;59.40
65568;DHT22;52211;50.154;8.682;2023-07-30T02:40:01;22.30;59.60
65568;DHT22;52211;50.154;8.682;2023-07-30T02:42:33;22.30;59.50
65568;DHT22;52211;50.154;8.682;2023-07-30T02:45:00;22.30;59.70
65568;DHT22;52211;50.154;8.682;2023-07-30T02:47:30;22.30;59.90
65568;DHT22;52211;50.154;8.682;2023-07-30T02:50:01;22.20;59.90
65568;DHT22;52211;50.154;8.682;2023-07-30T02:52:34;22.20;60.00
65568;DHT22;52211;50.154;8.682;2023-07-30T02:55:01;22.20;60.10
65568;DHT22;52211;50.154;8.682;2023-07-30T02:57:33;22.20;60.20
65568;DHT22;52211;50.154;8.682;2023-07-30T03:00:03;22.20;60.30
65568;DHT22;52211;50.154;8.682;2023-07-30T03:02:34;22.20;60.40
65568;DHT22;52211;50.154;8.682;2023-07-30T03:05:04;22.20;60.50
65568;DHT22;52211;50.154;8.682;2023-07-30T03:07:31;22.10;60.50
65568;DHT22;52211;50.154;8.682;2023-07-30T03:09:58;22.20;60.60
65568;DHT22;52211;50.154;8.682;2023-07-30T03:12:27;22.10;60.80
65568;DHT22;52211;50.154;8.682;2023-07-30T03:14:54;22.10;60.80
65568;DHT22;52211;50.154;8.682;2023-07-30T03:17:23;22.10;61.00
65568;DHT22;52211;50.154;8.682;2023-07-30T03:19:53;22.10;61.20
65568;DHT22;52211;50.154;8.682;2023-07-30T03:22:20;22.10;61.10
65568;DHT22;52211;50.154;8.682;2023-07-30T03:24:49;22.10;61.10
65568;DHT22;52211;50.154;8.682;2023-07-30T03:27:16;22.10;61.30
65568;DHT22;52211;50.154;8.682;2023-07-30T03:29:43;22.10;61.20
65568;DHT22;52211;50.154;8.682;2023-07-30T03:32:15;22.00;61.20
65568;DHT22;52211;50.154;8.682;2023-07-30T03:34:44;22.00;61.30
65568;DHT22;52211;50.154;8.682;2023-07-30T03:37:13;22.10;61.40
65568;DHT22;52211;50.154;8.682;2023-07-30T03:39:40;22.00;61.40
65568;DHT22;52211;50.154;8.682;2023-07-30T03:42:09;22.00;61.40
65568;DHT22;52211;50.154;8.682;2023-07-30T03:44:38;22.00;61.50
65568;DHT22;52211;50.154;8.682;2023-07-30T03:47:07;22.00;61.60
65568;DHT22;52211;50.154;8.682;2023-07-30T03:49:38;22.00;61.60
65568;DHT22;52211;50.154;8.682;2023-07-30T03:52:12;22.00;61.60
65568;DHT22;52211;50.154;8.682;2023-07-30T03:54:48;21.90;61.50
65568;DHT22;52211;50.154;8.682;2023-07-30T03:57:20;21.90;61.70
65568;DHT22;52211;50.154;8.682;2023-07-30T03:59:49;21.90;61.60
65568;DHT22;52211;50.154;8.682;2023-07-30T04:02:18;21.90;61.80
65568;DHT22;52211;50.154;8.682;2023-07-30T04:04:47;21.90;61.80
65568;DHT22;52211;50.154;8.682;2023-07-30T04:07:18;21.80;61.80
65568;DHT22;52211;50.154;8.682;2023-07-30T04:09:45;21.80;61.90
65568;DHT22;52211;50.154;8.682;2023-07-30T04:12:16;21.80;62.00
65568;DHT22;52211;50.154;8.682;2023-07-30T04:14:45;21.80;62.10
65568;DHT22;52211;50.154;8.682;2023-07-30T04:17:19;21.70;62.20
65568;DHT22;52211;50.154;8.682;2023-07-30T04:19:47;21.70;62.10
65568;DHT22;52211;50.154;8.682;2023-07-30T04:22:17;21.70;62.20
65568;DHT22;52211;50.154;8.682;2023-07-30T04:24:49;21.60;62.20
65568;DHT22;52211;50.154;8.682;2023-07-30T04:27:16;21.60;62.40
65568;DHT22;52211;50.154;8.682;2023-07-30T04:29:45;21.60;62.30
65568;DHT22;52211;50.154;8.682;2023-07-30T04:32:15;21.60;62.40
65568;DHT22;52211;50.154;8.682;2023-07-30T04:34:42;21.60;62.40
65568;DHT22;52211;50.154;8.682;2023-07-30T04:37:09;21.60;62.50
65568;DHT22;52211;50.154;8.682;2023-07-30T04:39:41;21.60;62.50
65568;DHT22;52211;50.154;8.682;2023-07-30T04:42:10;21.60;62.70
65568;DHT22;52211;50.154;8.682;2023-07-30T04:44:41;21.60;62.60
65568;DHT22;52211;50.154;8.682;2023-07-30T04:47:15;21.50;62.60
65568;DHT22;52211;50.154;8.682;2023-07-30T04:49:45;21.40;62.70
65568;DHT22;52211;50.154;8.682;2023-07-30T04:52:14;21.50;62.60
65568;DHT22;52211;50.154;8.682;2023-07-30T04:54:42;21.40;62.80
65568;DHT22;52211;50.154;8.682;2023-07-30T04:57:13;21.40;63.30
65568;DHT22;52211;50.154;8.682;2023-07-30T04:59:42;21.40;62.90
65568;DHT22;52211;50.154;8.682;2023-07-30T05:02:09;21.40;62.90
65568;DHT22;52211;50.154;8.682;2023-07-30T05:04:36;21.40;62.90
65568;DHT22;52211;50.154;8.682;2023-07-30T05:07:03;21.40;62.90
65568;DHT22;52211;50.154;8.682;2023-07-30T05:09:32;21.30;63.00
65568;DHT22;52211;50.154;8.682;2023-07-30T05:12:02;21.40;63.30
65568;DHT22;52211;50.154;8.682;2023-07-30T05:14:34;21.40;63.10
65568;DHT22;52211;50.154;8.682;2023-07-30T05:17:03;21.30;63.10
65568;DHT22;52211;50.154;8.682;2023-07-30T05:19:30;21.30;63.20
65568;DHT22;52211;50.154;8.682;2023-07-30T05:21:58;21.40;63.20
65568;DHT22;52211;50.154;8.682;2023-07-30T05:24:28;21.30;63.20
65568;DHT22;52211;50.154;8.682;2023-07-30T05:27:00;21.30;63.40
65568;DHT22;52211;50.154;8.682;2023-07-30T05:29:29;21.30;63.30
65568;DHT22;52211;50.154;8.682;2023-07-30T05:31:58;21.30;63.40
65568;DHT22;52211;50.154;8.682;2023-07-30T05:34:28;21.30;63.40
65568;DHT22;52211;50.154;8.682;2023-07-30T05:36:56;21.30;64.00
65568;DHT22;52211;50.154;8.682;2023-07-30T05:39:26;21.30;63.40
65568;DHT22;52211;50.154;8.682;2023-07-30T05:41:55;21.30;63.50
65568;DHT22;52211;50.154;8.682;2023-07-30T05:44:22;21.40;63.60
65568;DHT22;52211;50.154;8.682;2023-07-30T05:46:51;21.40;63.60
65568;DHT22;52211;50.154;8.682;2023-07-30T05:49:21;21.40;63.60
65568;DHT22;52211;50.154;8.682;2023-07-30T05:51:52;21.40;63.60
65568;DHT22;52211;50.154;8.682;2023-07-30T05:54:21;21.40;63.60
65568;DHT22;52211;50.154;8.682;2023-07-30T05:56:50;21.30;63.50
65568;DHT22;52211;50.154;8.682;2023-07-30T05:59:22;21.40;63.60
65568;DHT22;52211;50.154;8.682;2023-07-30T06:01:51;21.40;63.60
65568;DHT22;52211;50.154;8.682;2023-07-30T06:04:25;21.50;63.70
65568;DHT22;52211;50.154;8.682;2023-07-30T06:06:52;21.50;63.60
65568;DHT22;52211;50.154;8.682;2023-07-30T06:09:25;21.50;63.60
65568;DHT22;52211;50.154;8.682;2023-07-30T06:11:52;21.50;63.80
65568;DHT22;52211;50.154;8.682;2023-07-30T06:14:24;21.60;63.70
65568;DHT22;52211;50.154;8.682;2023-07-30T06:16:52;21.60;63.60
65568;DHT22;52211;50.154;8.682;2023-07-30T06:19:22;21.60;63.60
65568;DHT22;52211;50.154;8.682;2023-07-30T06:21:49;21.60;63.60
65568;DHT22;52211;50.154;8.682;2023-07-30T06:24:15;21.70;63.60
65568;DHT22;52211;50.154;8.682;2023-07-30T06:26:44;21.70;63.50
65568;DHT22;52211;50.154;8.682;2023-07-30T06:29:11;21.70;63.60
65568;DHT22;52211;50.154;8.682;2023-07-30T06:31:41;21.80;63.60
65568;DHT22;52211;50.154;8.682;2023-07-30T06:34:13;21.90;63.60
65568;DHT22;52211;50.154;8.682;2023-07-30T06:36:40;21.90;63.60
65568;DHT22;52211;50.154;8.682;2023-07-30T06:39:09;22.00;63.60
65568;DHT22;52211;50.154;8.682;2023-07-30T06:41:36;22.10;63.60
65568;DHT22;52211;50.154;8.682;2023-07-30T06:44:07;22.10;63.60
65568;DHT22;52211;50.154;8.682;2023-07-30T06:46:37;22.20;63.50
65568;DHT22;52211;50.154;8.682;2023-07-30T06:49:09;22.30;63.50
65568;DHT22;52211;50.154;8.682;2023-07-30T06:51:38;22.30;63.40
65568;DHT22;52211;50.154;8.682;2023-07-30T06:54:10;22.40;63.40
65568;DHT22;52211;50.154;8.682;2023-07-30T06:56:39;22.50;63.20
65568;DHT22;52211;50.154;8.682;2023-07-30T06:59:06;22.50;63.10
65568;DHT22;52211;50.154;8.682;2023-07-30T07:01:36;22.60;63.10
65568;DHT22;52211;50.154;8.682;2023-07-30T07:04:09;22.60;63.00
65568;DHT22;52211;50.154;8.682;2023-07-30T07:06:36;22.70;63.00
65568;DHT22;52211;50.154;8.682;2023-07-30T07:09:05;22.80;62.90
65568;DHT22;52211;50.154;8.682;2023-07-30T07:11:33;22.70;62.70
65568;DHT22;52211;50.154;8.682;2023-07-30T07:14:00;22.80;62.70
65568;DHT22;52211;50.154;8.682;2023-07-30T07:16:32;22.90;62.50
65568;DHT22;52211;50.154;8.682;2023-07-30T07:18:59;23.00;62.30
65568;DHT22;52211;50.154;8.682;2023-07-30T07:21:26;23.00;62.10
65568;DHT22;52211;50.154;8.682;2023-07-30T07:23:55;23.10;62.00
65568;DHT22;52211;50.154;8.682;2023-07-30T07:26:22;23.00;61.80
65568;DHT22;52211;50.154;8.682;2023-07-30T07:28:49;23.10;61.90
65568;DHT22;52211;50.154;8.682;2023-07-30T07:31:16;23.10;61.70
65568;DHT22;52211;50.154;8.682;2023-07-30T07:33:47;23.10;61.50
65568;DHT22;52211;50.154;8.682;2023-07-30T07:36:14;23.20;61.40
65568;DHT22;52211;50.154;8.682;2023-07-30T07:38:42;23.20;61.20
65568;DHT22;52211;50.154;8.682;2023-07-30T07:41:17;23.20;60.90
65568;DHT22;52211;50.154;8.682;2023-07-30T07:43:46;23.20;60.70
65568;DHT22;52211;50.154;8.682;2023-07-30T07:46:15;23.20;60.80
65568;DHT22;52211;50.154;8.682;2023-07-30T07:48:43;23.20;60.80
65568;DHT22;52211;50.154;8.682;2023-07-30T07:51:12;23.10;60.70
65568;DHT22;52211;50.154;8.682;2023-07-30T07:53:41;23.10;60.80
65568;DHT22;52211;50.154;8.682;2023-07-30T07:56:10;23.10;60.80
65568;DHT22;52211;50.154;8.682;2023-07-30T07:58:39;23.20;60.80
65568;DHT22;52211;50.154;8.682;2023-07-30T08:01:09;23.10;60.80
65568;DHT22;52211;50.154;8.682;2023-07-30T08:03:43;23.20;60.90
65568;DHT22;52211;50.154;8.682;2023-07-30T08:06:15;23.20;60.80
65568;DHT22;52211;50.154;8.682;2023-07-30T08:08:44;23.30;60.60
65568;DHT22;52211;50.154;8.682;2023-07-30T08:11:11;23.30;60.60
65568;DHT22;52211;50.154;8.682;2023-07-30T08:13:38;23.30;60.50
65568;DHT22;52211;50.154;8.682;2023-07-30T08:16:10;23.40;60.40
65568;DHT22;52211;50.154;8.682;2023-07-30T08:18:42;23.40;60.20
65568;DHT22;52211;50.154;8.682;2023-07-30T08:21:11;23.40;60.10
65568;DHT22;52211;50.154;8.682;2023-07-30T08:23:38;23.50;60.10
65568;DHT22;52211;50.154;8.682;2023-07-30T08:26:07;23.50;60.10
65568;DHT22;52211;50.154;8.682;2023-07-30T08:28:35;23.50;60.20
65568;DHT22;52211;50.154;8.682;2023-07-30T08:31:06;23.60;60.60
65568;DHT22;52211;50.154;8.682;2023-07-30T08:33:35;23.60;60.00
65568;DHT22;52211;50.154;8.682;2023-07-30T08:36:05;23.70;60.10
65568;DHT22;52211;50.154;8.682;2023-07-30T08:38:34;23.70;60.00
65568;DHT22;52211;50.154;8.682;2023-07-30T08:41:03;23.70;59.90
65568;DHT22;52211;50.154;8.682;2023-07-30T08:43:37;23.70;60.60
65568;DHT22;52211;50.154;8.682;2023-07-30T08:46:05;23.80;59.90
65568;DHT22;52211;50.154;8.682;2023-07-30T08:48:32;23.80;59.90
65568;DHT22;52211;50.154;8.682;2023-07-30T08:51:06;23.90;60.00
65568;DHT22;52211;50.154;8.682;2023-07-30T08:53:37;23.80;59.90
65568;DHT22;52211;50.154;8.682;2023-07-30T08:56:08;23.90;59.90
65568;DHT22;52211;50.154;8.682;2023-07-30T08:58:38;23.90;59.60
65568;DHT22;52211;50.154;8.682;2023-07-30T09:01:09;23.90;59.70
65568;DHT22;52211;50.154;8.682;2023-07-30T09:03:43;23.90;59.60
65568;DHT22;52211;50.154;8.682;2023-07-30T09:06:10;23.90;59.60
65568;DHT22;52211;50.154;8.682;2023-07-30T09:08:39;24.00;59.70
65568;DHT22;52211;50.154;8.682;2023-07-30T09:11:07;24.00;59.60
65568;DHT22;52211;50.154;8.682;2023-07-30T09:13:41;24.10;59.50
65568;DHT22;52211;50.154;8.682;2023-07-30T09:16:14;24.00;59.40
65568;DHT22;52211;50.154;8.682;2023-07-30T09:18:43;24.10;59.50
65568;DHT22;52211;50.154;8.682;2023-07-30T09:21:14;24.10;59.70
65568;DHT22;52211;50.154;8.682;2023-07-30T09:23:46;24.20;59.70
65568;DHT22;52211;50.154;8.682;2023-07-30T09:26:13;24.40;59.70
65568;DHT22;52211;50.154;8.682;2023-07-30T09:28:41;24.30;59.30
65568;DHT22;52211;50.154;8.682;2023-07-30T09:31:08;24.40;59.30
65568;DHT22;52211;50.154;8.682;2023-07-30T09:33:48;24.40;59.20
65568;DHT22;52211;50.154;8.682;2023-07-30T09:36:15;24.40;59.40
65568;DHT22;52211;50.154;8.682;2023-07-30T09:38:47;24.30;59.30
65568;DHT22;52211;50.154;8.682;2023-07-30T09:41:17;24.30;59.30
65568;DHT22;52211;50.154;8.682;2023-07-30T09:43:47;24.10;59.40
65568;DHT22;52211;50.154;8.682;2023-07-30T09:46:16;23.90;59.70
65568;DHT22;52211;50.154;8.682;2023-07-30T09:48:46;23.60;60.20
65568;DHT22;52211;50.154;8.682;2023-07-30T09:51:15;23.40;60.60
65568;DHT22;52211;50.154;8.682;2023-07-30T09:53:44;23.20;60.90
65568;DHT22;52211;50.154;8.682;2023-07-30T09:56:13;23.00;61.50
65568;DHT22;52211;50.154;8.682;2023-07-30T09:58:43;22.80;62.00
65568;DHT22;52211;50.154;8.682;2023-07-30T10:01:10;22.60;62.10
65568;DHT22;52211;50.154;8.682;2023-07-30T10:03:37;22.40;62.40
65568;DHT22;52211;50.154;8.682;2023-07-30T10:06:07;22.10;62.60
65568;DHT22;52211;50.154;8.682;2023-07-30T10:08:40;21.90;63.20
65568;DHT22;52211;50.154;8.682;2023-07-30T10:11:10;21.70;63.60
65568;DHT22;52211;50.154;8.682;2023-07-30T10:13:43;21.50;63.70
65568;DHT22;52211;50.154;8.682;2023-07-30T10:16:11;21.40;64.00
65568;DHT22;52211;50.154;8.682;2023-07-30T10:18:42;21.20;64.20
65568;DHT22;52211;50.154;8.682;2023-07-30T10:21:22;21.00;64.50
65568;DHT22;52211;50.154;8.682;2023-07-30T10:24:01;20.90;65.20
65568;DHT22;52211;50.154;8.682;2023-07-30T10:26:34;20.80;65.80
65568;DHT22;52211;50.154;8.682;2023-07-30T10:29:15;20.70;65.30
65568;DHT22;52211;50.154;8.682;2023-07-30T10:31:53;20.60;66.00
65568;DHT22;52211;50.154;8.682;2023-07-30T10:34:26;20.60;66.00
65568;DHT22;52211;50.154;8.682;2023-07-30T10:37:18;20.60;66.10
65568;DHT22;52211;50.154;8.682;2023-07-30T10:39:48;20.50;66.60
65568;DHT22;52211;50.154;8.682;2023-07-30T10:42:18;20.50;66.00
65568;DHT22;52211;50.154;8.682;2023-07-30T10:44:45;20.50;66.20
65568;DHT22;52211;50.154;8.682;2023-07-30T10:47:12;20.50;66.30
65568;DHT22;52211;50.154;8.682;2023-07-30T10:50:02;20.50;66.10
65568;DHT22;52211;50.154;8.682;2023-07-30T10:52:30;20.60;66.20
65568;DHT22;52211;50.154;8.682;2023-07-30T10:55:04;20.50;66.00
65568;DHT22;52211;50.154;8.682;2023-07-30T10:57:31;20.50;66.40
65568;DHT22;52211;50.154;8.682;2023-07-30T11:00:03;20.60;66.30
65568;DHT22;52211;50.154;8.682;2023-07-30T11:02:34;20.60;66.20
65568;DHT22;52211;50.154;8.682;2023-07-30T11:05:13;20.70;66.30
65568;DHT22;52211;50.154;8.682;2023-07-30T11:07:54;20.70;66.40
65568;DHT22;52211;50.154;8.682;2023-07-30T11:10:21;20.80;66.70
65568;DHT22;52211;50.154;8.682;2023-07-30T11:12:52;20.90;66.30
65568;DHT22;52211;50.154;8.682;2023-07-30T11:15:24;21.00;65.90
65568;DHT22;52211;50.154;8.682;2023-07-30T11:17:58;21.00;65.60
65568;DHT22;52211;50.154;8.682;2023-07-30T11:20:25;21.10;65.50
65568;DHT22;52211;50.154;8.682;2023-07-30T11:22:57;21.10;65.50
65568;DHT22;52211;50.154;8.682;2023-07-30T11:25:27;21.10;65.50
65568;DHT22;52211;50.154;8.682;2023-07-30T11:27:53;21.20;66.20
65568;DHT22;52211;50.154;8.682;2023-07-30T11:30:23;21.30;66.10
65568;DHT22;52211;50.154;8.682;2023-07-30T11:32:50;21.40;65.70
65568;DHT22;52211;50.154;8.682;2023-07-30T11:35:17;21.60;65.50
65568;DHT22;52211;50.154;8.682;2023-07-30T11:37:46;21.60;65.40
65568;DHT22;52211;50.154;8.682;2023-07-30T11:40:16;21.70;65.00
65568;DHT22;52211;50.154;8.682;2023-07-30T11:42:47;21.80;64.60
65568;DHT22;52211;50.154;8.682;2023-07-30T11:45:19;21.90;64.50
65568;DHT22;52211;50.154;8.682;2023-07-30T11:47:49;22.00;63.90
65568;DHT22;52211;50.154;8.682;2023-07-30T11:50:20;22.00;63.30
65568;DHT22;52211;50.154;8.682;2023-07-30T11:55:23;22.10;62.80
65568;DHT22;52211;50.154;8.682;2023-07-30T11:58:03;22.20;62.70
65568;DHT22;52211;50.154;8.682;2023-07-30T12:00:31;22.30;62.40
65568;DHT22;52211;50.154;8.682;2023-07-30T12:03:10;22.30;62.20
65568;DHT22;52211;50.154;8.682;2023-07-30T12:05:39;22.40;62.50
65568;DHT22;52211;50.154;8.682;2023-07-30T12:08:13;22.40;62.60
65568;DHT22;52211;50.154;8.682;2023-07-30T12:10:44;22.70;62.50
65568;DHT22;52211;50.154;8.682;2023-07-30T12:13:15;22.80;61.90
65568;DHT22;52211;50.154;8.682;2023-07-30T12:15:53;23.00;61.70
65568;DHT22;52211;50.154;8.682;2023-07-30T12:18:25;23.10;60.10
65568;DHT22;52211;50.154;8.682;2023-07-30T12:20:56;23.20;60.80
65568;DHT22;52211;50.154;8.682;2023-07-30T12:23:30;23.40;60.50
65568;DHT22;52211;50.154;8.682;2023-07-30T12:25:59;23.50;60.00
65568;DHT22;52211;50.154;8.682;2023-07-30T12:28:33;23.70;59.70
65568;DHT22;52211;50.154;8.682;2023-07-30T12:31:05;23.80;58.90
65568;DHT22;52211;50.154;8.682;2023-07-30T12:33:34;23.90;57.80
65568;DHT22;52211;50.154;8.682;2023-07-30T12:36:04;23.90;57.80
65568;DHT22;52211;50.154;8.682;2023-07-30T12:38:33;24.00;58.40
65568;DHT22;52211;50.154;8.682;2023-07-30T12:41:01;24.10;58.10
65568;DHT22;52211;50.154;8.682;2023-07-30T12:43:30;24.10;57.80
65568;DHT22;52211;50.154;8.682;2023-07-30T12:45:57;24.30;57.60
65568;DHT22;52211;50.154;8.682;2023-07-30T12:48:24;24.40;57.80
65568;DHT22;52211;50.154;8.682;2023-07-30T12:50:53;24.60;57.80
65568;DHT22;52211;50.154;8.682;2023-07-30T12:53:26;24.80;57.30
65568;DHT22;52211;50.154;8.682;2023-07-30T12:55:55;25.10;56.70
65568;DHT22;52211;50.154;8.682;2023-07-30T12:58:22;25.30;55.00
65568;DHT22;52211;50.154;8.682;2023-07-30T13:00:49;25.50;54.60
65568;DHT22;52211;50.154;8.682;2023-07-30T13:03:19;25.70;54.60
65568;DHT22;52211;50.154;8.682;2023-07-30T13:05:50;25.90;54.10
65568;DHT22;52211;50.154;8.682;2023-07-30T13:08:17;26.10;53.20
65568;DHT22;52211;50.154;8.682;2023-07-30T13:10:44;26.10;52.10
65568;DHT22;52211;50.154;8.682;2023-07-30T13:13:11;26.20;52.10
65568;DHT22;52211;50.154;8.682;2023-07-30T13:15:40;26.30;51.70
65568;DHT22;52211;50.154;8.682;2023-07-30T13:18:10;26.20;51.20
65568;DHT22;52211;50.154;8.682;2023-07-30T13:20:37;26.20;50.70
65568;DHT22;52211;50.154;8.682;2023-07-30T13:23:07;26.10;50.80
65568;DHT22;52211;50.154;8.682;2023-07-30T13:25:39;26.10;51.00
65568;DHT22;52211;50.154;8.682;2023-07-30T13:28:05;26.10;50.50
65568;DHT22;52211;50.154;8.682;2023-07-30T13:30:35;26.10;50.90
65568;DHT22;52211;50.154;8.682;2023-07-30T13:33:02;26.20;50.90
65568;DHT22;52211;50.154;8.682;2023-07-30T13:35:31;26.40;50.90
65568;DHT22;52211;50.154;8.682;2023-07-30T13:38:00;26.50;51.20
65568;DHT22;52211;50.154;8.682;2023-07-30T13:40:30;26.70;50.80
65568;DHT22;52211;50.154;8.682;2023-07-30T13:42:59;27.00;50.60
65568;DHT22;52211;50.154;8.682;2023-07-30T13:45:30;27.20;50.80
65568;DHT22;52211;50.154;8.682;2023-07-30T13:47:57;27.50;49.60
65568;DHT22;52211;50.154;8.682;2023-07-30T13:50:24;27.60;48.80
65568;DHT22;52211;50.154;8.682;2023-07-30T13:52:51;27.60;48.10
65568;DHT22;52211;50.154;8.682;2023-07-30T13:55:21;27.60;47.90
65568;DHT22;52211;50.154;8.682;2023-07-30T13:57:50;27.50;48.50
65568;DHT22;52211;50.154;8.682;2023-07-30T14:00:20;27.50;48.90
65568;DHT22;52211;50.154;8.682;2023-07-30T14:02:47;27.60;48.70
65568;DHT22;52211;50.154;8.682;2023-07-30T14:05:15;27.70;48.90
65568;DHT22;52211;50.154;8.682;2023-07-30T14:07:42;27.70;48.50
65568;DHT22;52211;50.154;8.682;2023-07-30T14:10:12;27.80;48.00
65568;DHT22;52211;50.154;8.682;2023-07-30T14:12:41;27.80;47.90
65568;DHT22;52211;50.154;8.682;2023-07-30T14:15:11;27.90;47.80
65568;DHT22;52211;50.154;8.682;2023-07-30T14:17:41;28.00;47.30
65568;DHT22;52211;50.154;8.682;2023-07-30T14:20:13;28.00;46.60
65568;DHT22;52211;50.154;8.682;2023-07-30T14:22:40;28.00;45.40
65568;DHT22;52211;50.154;8.682;2023-07-30T14:25:11;27.80;45.50
65568;DHT22;52211;50.154;8.682;2023-07-30T14:27:38;27.80;46.00
65568;DHT22;52211;50.154;8.682;2023-07-30T14:30:08;27.60;45.80
65568;DHT22;52211;50.154;8.682;2023-07-30T14:32:35;27.50;45.40
65568;DHT22;52211;50.154;8.682;2023-07-30T14:35:07;27.30;45.60
65568;DHT22;52211;50.154;8.682;2023-07-30T14:37:34;27.10;45.10
65568;DHT22;52211;50.154;8.682;2023-07-30T14:40:04;26.90;44.50
65568;DHT22;52211;50.154;8.682;2023-07-30T14:42:36;26.60;44.70
65568;DHT22;52211;50.154;8.682;2023-07-30T14:45:03;26.40;44.70
65568;DHT22;52211;50.154;8.682;2023-07-30T14:47:33;26.20;45.70
65568;DHT22;52211;50.154;8.682;2023-07-30T14:50:00;26.10;45.80
65568;DHT22;52211;50.154;8.682;2023-07-30T14:52:30;26.10;45.80
65568;DHT22;52211;50.154;8.682;2023-07-30T14:55:01;26.10;45.70
65568;DHT22;52211;50.154;8.682;2023-07-30T14:57:35;26.10;45.80
65568;DHT22;52211;50.154;8.682;2023-07-30T15:00:05;26.20;45.70
65568;DHT22;52211;50.154;8.682;2023-07-30T15:02:38;26.20;45.60
65568;DHT22;52211;50.154;8.682;2023-07-30T15:05:10;26.20;45.40
65568;DHT22;52211;50.154;8.682;2023-07-30T15:07:43;26.30;45.90
65568;DHT22;52211;50.154;8.682;2023-07-30T15:10:15;26.30;46.00
65568;DHT22;52211;50.154;8.682;2023-07-30T15:12:43;26.50;46.40
65568;DHT22;52211;50.154;8.682;2023-07-30T15:15:15;26.80;46.40
65568;DHT22;52211;50.154;8.682;2023-07-30T15:17:42;27.10;46.10
65568;DHT22;52211;50.154;8.682;2023-07-30T15:20:09;27.30;45.40
65568;DHT22;52211;50.154;8.682;2023-07-30T15:22:39;27.50;44.80
65568;DHT22;52211;50.154;8.682;2023-07-30T15:25:06;27.70;44.60
65568;DHT22;52211;50.154;8.682;2023-07-30T15:27:35;27.90;44.50
65568;DHT22;52211;50.154;8.682;2023-07-30T15:30:03;28.00;44.30
65568;DHT22;52211;50.154;8.682;2023-07-30T15:32:41;28.20;44.50
65568;DHT22;52211;50.154;8.682;2023-07-30T15:35:10;28.30;43.90
65568;DHT22;52211;50.154;8.682;2023-07-30T15:37:39;28.40;42.70
65568;DHT22;52211;50.154;8.682;2023-07-30T15:40:09;28.50;42.90
65568;DHT22;52211;50.154;8.682;2023-07-30T15:42:39;28.60;43.00
65568;DHT22;52211;50.154;8.682;2023-07-30T15:45:10;28.70;42.60
65568;DHT22;52211;50.154;8.682;2023-07-30T15:47:44;28.80;43.00
65568;DHT22;52211;50.154;8.682;2023-07-30T15:50:13;28.80;41.80